createdAt,value
2019-05-22T00:00:20.463Z,3.70
2019-05-22T00:02:50.899Z,3.30
2019-05-22T00:05:29.134Z,3.50
2019-05-22T00:08:01.256Z,4.20
2019-05-22T00:10:34.253Z,3.23
2019-05-22T00:13:07.159Z,3.93
2019-05-22T00:15:40.110Z,3.67
2019-05-22T00:18:12.021Z,4.13
2019-05-22T00:20:44.264Z,3.63
2019-05-22T00:23:17.603Z,4.63
2019-05-22T00:25:49.060Z,4.20
2019-05-22T00:28:19.466Z,4.43
2019-05-22T00:30:51.670Z,4.03
2019-05-22T00:33:22.084Z,4.73
2019-05-22T00:35:56.841Z,4.70
2019-05-22T00:38:29.061Z,4.63
2019-05-22T00:41:03.279Z,4.13
2019-05-22T00:43:39.563Z,4.63
2019-05-22T00:46:12.253Z,4.03
2019-05-22T00:48:44.227Z,4.37
2019-05-22T00:51:35.455Z,3.90
2019-05-22T00:54:38.796Z,5.83
2019-05-22T00:57:15.228Z,4.37
2019-05-22T00:59:56.579Z,4.60
2019-05-22T01:02:30.430Z,5.03
2019-05-22T01:05:02.794Z,3.70
2019-05-22T01:07:37.350Z,4.27
2019-05-22T01:10:11.931Z,4.90
2019-05-22T01:12:44.213Z,4.50
2019-05-22T01:15:21.232Z,4.73
2019-05-22T01:17:52.075Z,5.00
2019-05-22T01:20:25.637Z,4.83
2019-05-22T01:22:58.699Z,5.07
2019-05-22T01:25:31.104Z,5.70
2019-05-22T01:28:02.124Z,4.50
2019-05-22T01:30:51.118Z,5.67
2019-05-22T01:33:25.898Z,4.67
2019-05-22T01:36:14.816Z,5.60
2019-05-22T01:38:47.669Z,6.07
2019-05-22T01:41:26.976Z,5.03
2019-05-22T01:44:02.455Z,5.40
2019-05-22T01:46:36.469Z,5.80
2019-05-22T01:49:10.313Z,5.47
2019-05-22T01:51:42.588Z,5.50
2019-05-22T01:54:14.888Z,5.50
2019-05-22T01:56:46.125Z,6.03
2019-05-22T01:59:18.505Z,6.10
2019-05-22T02:01:49.932Z,6.03
2019-05-22T02:04:22.028Z,5.60
2019-05-22T02:06:53.200Z,5.93
2019-05-22T02:09:31.024Z,4.87
2019-05-22T02:12:10.211Z,5.00
2019-05-22T02:14:44.645Z,5.10
2019-05-22T02:17:18.314Z,5.60
2019-05-22T02:19:50.354Z,5.87
2019-05-22T02:22:22.068Z,4.87
2019-05-22T02:24:53.626Z,5.20
2019-05-22T02:27:26.306Z,5.07
2019-05-22T02:29:59.298Z,5.63
2019-05-22T02:32:31.941Z,4.73
2019-05-22T02:35:02.737Z,6.50
2019-05-22T02:37:35.490Z,4.77
2019-05-22T02:40:09.144Z,5.57
2019-05-22T02:42:40.522Z,5.27
2019-05-22T02:45:11.331Z,5.57
2019-05-22T02:47:43.390Z,4.90
2019-05-22T02:50:14.967Z,5.20
2019-05-22T02:52:45.800Z,5.30
2019-05-22T02:55:17.060Z,4.70
2019-05-22T02:57:48.195Z,5.03
2019-05-22T03:00:19.765Z,5.43
2019-05-22T03:02:53.702Z,5.40
2019-05-22T03:05:25.159Z,5.53
2019-05-22T03:07:55.891Z,5.17
2019-05-22T03:10:27.381Z,5.03
2019-05-22T03:12:59.268Z,4.50
2019-05-22T03:15:29.827Z,4.80
2019-05-22T03:18:04.902Z,4.23
2019-05-22T03:20:35.945Z,5.13
2019-05-22T03:23:36.712Z,4.83
2019-05-22T03:26:10.539Z,4.27
2019-05-22T03:28:42.115Z,4.43
2019-05-22T03:31:13.713Z,3.93
2019-05-22T03:33:44.766Z,4.13
2019-05-22T03:36:18.221Z,4.60
2019-05-22T03:38:49.300Z,4.67
2019-05-22T03:41:20.820Z,4.33
2019-05-22T03:43:53.458Z,4.27
2019-05-22T03:46:49.718Z,4.23
2019-05-22T03:49:29.877Z,3.73
2019-05-22T03:51:53.736Z,3.80
2019-05-22T03:54:25.904Z,3.57
2019-05-22T03:56:57.330Z,3.77
2019-05-22T03:59:28.216Z,3.93
2019-05-22T04:02:00.370Z,3.13
2019-05-22T04:04:39.463Z,3.50
2019-05-22T04:07:14.271Z,3.70
2019-05-22T04:09:46.189Z,3.17
2019-05-22T04:12:16.821Z,3.20
2019-05-22T04:14:47.179Z,3.23
2019-05-22T04:17:17.838Z,3.87
2019-05-22T04:19:51.669Z,3.20
2019-05-22T04:22:21.684Z,2.90
2019-05-22T04:24:52.511Z,3.20
2019-05-22T04:27:23.105Z,2.67
2019-05-22T04:29:58.266Z,3.80
2019-05-22T04:32:31.853Z,3.07
2019-05-22T04:35:05.050Z,3.02
2019-05-22T04:37:35.616Z,5.50
2019-05-22T04:40:54.339Z,3.00
2019-05-22T04:43:31.019Z,2.90
2019-05-22T04:46:03.752Z,2.90
2019-05-22T04:48:36.466Z,4.00
2019-05-22T04:51:41.936Z,2.65
2019-05-22T04:54:12.471Z,3.80
2019-05-22T04:56:44.176Z,3.10
2019-05-22T04:59:16.919Z,3.22
2019-05-22T05:01:47.526Z,2.60
2019-05-22T05:04:18.834Z,3.00
2019-05-22T05:06:50.052Z,3.60
2019-05-22T05:09:21.432Z,4.10
2019-05-22T05:11:52.424Z,3.20
2019-05-22T05:14:23.151Z,3.15
2019-05-22T05:16:53.524Z,3.20
2019-05-22T05:19:24.750Z,3.80
2019-05-22T05:21:55.614Z,3.50
2019-05-22T05:24:25.912Z,2.95
2019-05-22T05:26:56.970Z,5.25
2019-05-22T05:29:33.265Z,3.52
2019-05-22T05:32:04.228Z,2.67
2019-05-22T05:34:57.437Z,2.98
2019-05-22T05:37:28.257Z,3.00
2019-05-22T05:40:36.390Z,2.73
2019-05-22T05:43:09.060Z,4.15
2019-05-22T05:45:41.080Z,2.47
2019-05-22T05:48:14.048Z,3.50
2019-05-22T05:51:22.294Z,3.10
2019-05-22T05:54:08.426Z,3.85
2019-05-22T05:56:40.916Z,2.60
2019-05-22T05:59:14.185Z,2.67
2019-05-22T06:02:05.257Z,2.67
2019-05-22T06:04:39.824Z,2.15
2019-05-22T06:07:24.294Z,2.65
2019-05-22T06:10:22.378Z,3.00
2019-05-22T06:12:53.606Z,2.72
2019-05-22T06:15:45.840Z,2.58
2019-05-22T06:18:35.544Z,3.08
2019-05-22T06:21:09.888Z,3.08
2019-05-22T06:24:17.962Z,3.35
2019-05-22T06:27:19.123Z,2.70
2019-05-22T06:29:59.387Z,3.12
2019-05-22T06:33:23.290Z,3.57
2019-05-22T06:35:55.548Z,2.95
2019-05-22T06:39:03.126Z,2.65
2019-05-22T06:41:37.492Z,3.22
2019-05-22T06:44:41.124Z,2.85
2019-05-22T06:47:15.906Z,2.95
2019-05-22T06:49:51.599Z,3.02
2019-05-22T06:52:22.751Z,3.92
2019-05-22T06:54:54.123Z,3.47
2019-05-22T06:57:37.483Z,2.33
2019-05-22T07:00:15.448Z,2.72
2019-05-22T07:02:46.220Z,2.58
2019-05-22T07:05:17.735Z,2.90
2019-05-22T07:07:48.919Z,2.45
2019-05-22T07:10:20.959Z,3.05
2019-05-22T07:12:52.049Z,2.87
2019-05-22T07:15:34.179Z,2.15
2019-05-22T07:18:05.762Z,3.33
2019-05-22T07:20:39.076Z,3.08
2019-05-22T07:23:13.088Z,2.98
2019-05-22T07:25:44.516Z,2.37
2019-05-22T07:28:19.456Z,3.37
2019-05-22T07:30:51.172Z,3.12
2019-05-22T07:33:23.787Z,2.85
2019-05-22T07:36:09.271Z,2.62
2019-05-22T07:38:28.349Z,2.98
2019-05-22T07:40:59.518Z,3.33
2019-05-22T07:43:29.936Z,2.58
2019-05-22T07:46:00.662Z,3.02
2019-05-22T07:48:32.376Z,2.87
2019-05-22T07:51:03.466Z,2.30
2019-05-22T07:53:33.856Z,2.40
2019-05-22T07:56:09.698Z,2.40
2019-05-22T07:58:41.524Z,2.17
2019-05-22T08:01:12.116Z,2.25
2019-05-22T08:03:45.339Z,2.02
2019-05-22T08:06:16.850Z,2.50
2019-05-22T08:08:49.387Z,2.37
2019-05-22T08:11:21.186Z,2.02
2019-05-22T08:13:52.467Z,2.37
2019-05-22T08:16:24.469Z,2.60
2019-05-22T08:18:54.817Z,2.02
2019-05-22T08:21:25.801Z,2.83
2019-05-22T08:23:56.993Z,2.80
2019-05-22T08:26:29.182Z,2.20
2019-05-22T08:29:01.673Z,2.00
2019-05-22T08:31:32.785Z,2.55
2019-05-22T08:34:05.506Z,8.45
2019-05-22T08:36:38.716Z,3.98
2019-05-22T08:39:12.968Z,2.27
2019-05-22T08:41:44.424Z,2.30
2019-05-22T08:44:17.451Z,1.57
2019-05-22T08:46:49.865Z,2.33
2019-05-22T08:49:20.679Z,2.25
2019-05-22T08:51:51.323Z,2.02
2019-05-22T08:54:22.005Z,2.25
2019-05-22T08:56:54.963Z,2.02
2019-05-22T08:59:26.050Z,1.95
2019-05-22T09:01:57.918Z,2.15
2019-05-22T09:04:29.346Z,2.50
2019-05-22T09:06:59.820Z,2.22
2019-05-22T09:09:30.573Z,2.35
2019-05-22T09:12:01.356Z,1.75
2019-05-22T09:14:32.069Z,2.30
2019-05-22T09:17:03.028Z,2.02
2019-05-22T09:19:34.409Z,2.47
2019-05-22T09:22:07.011Z,1.92
2019-05-22T09:24:39.004Z,2.12
2019-05-22T09:27:12.355Z,2.20
2019-05-22T09:29:42.688Z,1.85
2019-05-22T09:32:13.454Z,2.08
2019-05-22T09:34:43.793Z,2.02
2019-05-22T09:37:14.406Z,1.92
2019-05-22T09:39:45.083Z,1.80
2019-05-22T09:42:16.424Z,2.10
2019-05-22T09:44:46.736Z,2.37
2019-05-22T09:47:19.796Z,1.92
2019-05-22T09:49:50.493Z,2.67
2019-05-22T09:52:22.512Z,2.45
2019-05-22T09:54:53.378Z,2.65
2019-05-22T09:57:23.940Z,5.62
2019-05-22T09:59:54.893Z,3.50
2019-05-22T10:02:27.001Z,3.85
2019-05-22T10:04:57.434Z,3.90
2019-05-22T10:07:27.762Z,2.90
2019-05-22T10:09:58.147Z,2.60
2019-05-22T10:12:29.642Z,2.75
2019-05-22T10:15:00.166Z,3.15
2019-05-22T10:17:31.476Z,3.10
2019-05-22T10:20:02.638Z,3.05
2019-05-22T10:22:34.341Z,2.70
2019-05-22T10:25:15.867Z,2.60
2019-05-22T10:27:40.465Z,3.00
2019-05-22T10:30:13.789Z,1.92
2019-05-22T10:32:44.444Z,2.58
2019-05-22T10:35:16.352Z,3.20
2019-05-22T10:37:47.451Z,1.92
2019-05-22T10:40:18.914Z,2.45
2019-05-22T10:42:49.778Z,2.65
2019-05-22T10:47:50.621Z,2.42
2019-05-22T10:50:22.358Z,1.87
2019-05-22T10:52:54.383Z,2.37
2019-05-22T10:55:26.666Z,1.75
2019-05-22T10:57:58.222Z,2.33
2019-05-22T11:00:29.928Z,1.52
2019-05-22T11:03:01.322Z,1.75
2019-05-22T11:05:31.882Z,1.65
2019-05-22T11:08:02.626Z,1.92
2019-05-22T11:10:33.513Z,1.85
2019-05-22T11:13:05.225Z,1.92
2019-05-22T11:15:36.393Z,1.72
2019-05-22T11:18:07.263Z,1.92
2019-05-22T11:20:37.867Z,1.65
2019-05-22T11:23:08.595Z,1.62
2019-05-22T11:25:38.981Z,1.80
2019-05-22T11:28:09.279Z,1.92
2019-05-22T11:30:40.591Z,1.65
2019-05-22T11:33:12.286Z,2.45
2019-05-22T11:35:43.377Z,2.02
2019-05-22T11:38:13.952Z,1.90
2019-05-22T11:40:44.685Z,1.75
2019-05-22T11:43:15.944Z,2.15
2019-05-22T11:45:46.313Z,1.67
2019-05-22T11:48:16.954Z,1.90
2019-05-22T11:50:47.329Z,1.92
2019-05-22T11:53:17.929Z,1.65
2019-05-22T11:55:48.846Z,1.72
2019-05-22T11:58:19.651Z,1.98
2019-05-22T12:00:51.200Z,1.98
2019-05-22T12:03:22.943Z,1.95
2019-05-22T12:05:54.676Z,2.00
2019-05-22T12:08:27.262Z,1.47
2019-05-22T12:10:59.938Z,1.80
2019-05-22T12:13:33.061Z,1.52
2019-05-22T12:16:06.437Z,1.72
2019-05-22T12:18:37.377Z,1.55
2019-05-22T12:21:08.033Z,1.50
2019-05-22T12:23:38.541Z,2.08
2019-05-22T12:26:11.133Z,2.50
2019-05-22T12:28:41.516Z,2.05
2019-05-22T12:31:12.295Z,2.08
2019-05-22T12:33:44.057Z,1.47
2019-05-22T12:36:14.789Z,1.98
2019-05-22T12:38:45.331Z,1.77
2019-05-22T12:41:18.376Z,1.55
2019-05-22T12:43:49.097Z,1.55
2019-05-22T12:46:20.942Z,2.08
2019-05-22T12:48:51.757Z,1.52
2019-05-22T12:51:22.212Z,2.08
2019-05-22T12:53:53.951Z,2.12
2019-05-22T12:56:24.650Z,1.57
2019-05-22T12:58:56.961Z,1.80
2019-05-22T13:01:30.209Z,1.30
2019-05-22T13:04:02.678Z,1.75
2019-05-22T13:06:34.543Z,1.57
2019-05-22T13:09:09.239Z,1.67
2019-05-22T13:11:40.929Z,1.70
2019-05-22T13:14:11.789Z,1.87
2019-05-22T13:16:48.330Z,1.75
2019-05-22T13:19:15.847Z,1.80
2019-05-22T13:21:47.949Z,1.67
2019-05-22T13:24:22.039Z,1.80
2019-05-22T13:26:53.192Z,1.67
2019-05-22T13:29:27.002Z,1.17
2019-05-22T13:31:58.015Z,0.90
2019-05-22T13:34:29.183Z,1.40
2019-05-22T13:37:00.069Z,1.40
2019-05-22T13:39:32.058Z,1.25
2019-05-22T13:42:02.481Z,1.55
2019-05-22T13:44:33.077Z,2.02
2019-05-22T13:47:04.296Z,1.45
2019-05-22T13:49:37.639Z,1.35
2019-05-22T13:52:08.106Z,1.85
2019-05-22T13:54:40.081Z,1.85
2019-05-22T13:57:12.527Z,1.92
2019-05-22T13:59:43.438Z,1.70
2019-05-22T14:02:14.199Z,1.98
2019-05-22T14:04:45.193Z,2.22
2019-05-22T14:07:16.501Z,1.70
2019-05-22T14:09:47.695Z,1.57
2019-05-22T14:12:18.817Z,1.80
2019-05-22T14:14:49.696Z,1.80
2019-05-22T14:17:20.062Z,1.35
2019-05-22T14:19:50.738Z,1.67
2019-05-22T14:22:21.322Z,1.87
2019-05-22T14:24:52.202Z,1.70
2019-05-22T14:27:23.201Z,1.92
2019-05-22T14:29:53.763Z,1.85
2019-05-22T14:32:29.847Z,1.92
2019-05-22T14:34:58.090Z,2.47
2019-05-22T14:37:29.642Z,2.55
2019-05-22T14:40:00.171Z,1.90
2019-05-22T14:42:30.675Z,2.27
2019-05-22T14:45:01.422Z,1.92
2019-05-22T14:47:31.905Z,2.22
2019-05-22T14:50:02.563Z,1.40
2019-05-22T14:52:34.973Z,1.50
2019-05-22T14:55:06.451Z,1.75
2019-05-22T14:57:37.889Z,1.50
2019-05-22T15:00:09.735Z,1.35
2019-05-22T15:02:40.440Z,1.60
2019-05-22T15:05:12.519Z,1.65
2019-05-22T15:07:43.037Z,1.22
2019-05-22T15:10:17.035Z,1.98
2019-05-22T15:12:48.935Z,1.40
2019-05-22T15:15:22.888Z,1.50
2019-05-22T15:17:53.239Z,1.45
2019-05-22T15:20:33.157Z,1.32
2019-05-22T15:23:04.425Z,1.27
2019-05-22T15:25:35.191Z,1.35
2019-05-22T15:28:06.551Z,1.45
2019-05-22T15:30:37.912Z,1.50
2019-05-22T15:33:09.222Z,1.47
2019-05-22T15:35:40.146Z,1.50
2019-05-22T15:38:12.729Z,1.20
2019-05-22T15:40:43.431Z,1.45
2019-05-22T15:43:16.810Z,1.45
2019-05-22T15:45:49.579Z,1.30
2019-05-22T15:48:31.855Z,1.45
2019-05-22T15:51:06.042Z,1.67
2019-05-22T15:53:40.754Z,1.02
2019-05-22T15:56:13.549Z,1.25
2019-05-22T15:58:49.165Z,1.62
2019-05-22T16:01:24.237Z,1.60
2019-05-22T16:03:56.095Z,1.62
2019-05-22T16:06:28.237Z,1.52
2019-05-22T16:08:59.818Z,1.40
2019-05-22T16:11:31.647Z,1.72
2019-05-22T16:14:03.578Z,1.60
2019-05-22T16:16:36.134Z,1.55
2019-05-22T16:19:09.108Z,1.98
2019-05-22T16:21:42.692Z,1.95
2019-05-22T16:24:13.858Z,1.52
2019-05-22T16:26:44.684Z,1.72
2019-05-22T16:29:16.137Z,1.82
2019-05-22T16:31:46.533Z,1.47
2019-05-22T16:34:19.888Z,1.02
2019-05-22T16:36:51.049Z,1.10
2019-05-22T16:39:23.827Z,1.02
2019-05-22T16:41:55.218Z,1.25
2019-05-22T16:44:26.191Z,1.20
2019-05-22T16:46:58.932Z,1.30
2019-05-22T16:49:29.825Z,1.47
2019-05-22T16:52:01.005Z,1.45
2019-05-22T16:54:33.677Z,1.30
2019-05-22T16:57:04.474Z,1.35
2019-05-22T16:59:37.272Z,1.72
2019-05-22T17:02:11.215Z,1.60
2019-05-22T17:04:41.946Z,1.55
2019-05-22T17:07:13.369Z,1.75
2019-05-22T17:09:44.762Z,1.20
2019-05-22T17:12:18.207Z,1.05
2019-05-22T17:14:49.774Z,1.27
2019-05-22T17:17:20.759Z,1.50
2019-05-22T17:19:52.185Z,1.40
2019-05-22T17:22:23.413Z,1.70
2019-05-22T17:24:54.158Z,1.07
2019-05-22T17:27:25.310Z,1.15
2019-05-22T17:29:57.044Z,1.37
2019-05-22T17:32:28.219Z,1.25
2019-05-22T17:35:00.186Z,1.35
2019-05-22T17:37:34.198Z,1.40
2019-05-22T17:40:06.983Z,0.85
2019-05-22T17:42:39.094Z,1.70
2019-05-22T17:45:11.582Z,1.50
2019-05-22T17:47:44.255Z,1.70
2019-05-22T17:50:26.577Z,1.67
2019-05-22T17:52:51.110Z,1.55
2019-05-22T17:55:23.520Z,2.30
2019-05-22T17:57:54.591Z,1.87
2019-05-22T18:00:35.419Z,1.75
2019-05-22T18:03:06.597Z,2.58
2019-05-22T18:05:37.373Z,1.80
2019-05-22T18:08:08.541Z,1.70
2019-05-22T18:10:40.932Z,2.40
2019-05-22T18:13:13.254Z,2.25
2019-05-22T18:15:44.088Z,2.02
2019-05-22T18:18:15.466Z,1.85
2019-05-22T18:20:46.390Z,2.37
2019-05-22T18:23:16.897Z,3.17
2019-05-22T18:25:47.768Z,1.92
2019-05-22T18:28:19.486Z,2.62
2019-05-22T18:30:50.559Z,2.35
2019-05-22T18:33:20.964Z,2.42
2019-05-22T18:35:51.967Z,2.45
2019-05-22T18:38:22.397Z,3.22
2019-05-22T18:40:52.780Z,2.92
2019-05-22T18:43:23.323Z,3.65
2019-05-22T18:45:54.194Z,2.67
2019-05-22T18:48:24.540Z,2.83
2019-05-22T18:50:54.914Z,3.10
2019-05-22T18:53:28.794Z,2.83
2019-05-22T18:55:59.897Z,4.80
2019-05-22T18:58:30.360Z,3.55
2019-05-22T19:01:00.731Z,4.22
2019-05-22T19:03:31.484Z,10.48
2019-05-22T19:06:02.918Z,5.75
2019-05-22T19:08:34.034Z,3.98
2019-05-22T19:11:04.463Z,3.72
2019-05-22T19:13:34.970Z,3.58
2019-05-22T19:16:06.903Z,3.45
2019-05-22T19:18:37.632Z,3.27
2019-05-22T19:21:10.587Z,2.87
2019-05-22T19:23:41.496Z,3.92
2019-05-22T19:26:11.835Z,4.00
2019-05-22T19:28:44.386Z,4.30
2019-05-22T19:31:15.124Z,3.85
2019-05-22T19:33:46.058Z,4.40
2019-05-22T19:36:16.642Z,4.72
2019-05-22T19:38:47.137Z,4.20
2019-05-22T19:41:17.923Z,4.65
2019-05-22T19:43:48.821Z,4.40
2019-05-22T19:46:20.251Z,18.50
2019-05-22T19:48:50.753Z,9.53
2019-05-22T19:51:21.312Z,5.72
2019-05-22T19:53:52.474Z,6.03
2019-05-22T19:56:24.123Z,5.08
2019-05-22T19:58:54.920Z,6.92
2019-05-22T20:01:26.740Z,5.37
2019-05-22T20:03:57.218Z,5.47
2019-05-22T20:06:28.166Z,5.37
2019-05-22T20:08:59.181Z,5.42
2019-05-22T20:11:30.156Z,19.45
2019-05-22T20:14:01.856Z,8.75
2019-05-22T20:16:32.725Z,5.35
2019-05-22T20:19:04.558Z,6.22
2019-05-22T20:21:35.634Z,6.62
2019-05-22T20:24:07.948Z,7.70
2019-05-22T20:26:38.547Z,7.60
2019-05-22T20:29:09.565Z,7.80
2019-05-22T20:31:39.896Z,6.90
2019-05-22T20:34:10.536Z,8.23
2019-05-22T20:36:42.240Z,7.90
2019-05-22T20:39:20.374Z,6.83
2019-05-22T20:41:51.444Z,6.58
2019-05-22T20:44:23.002Z,7.10
2019-05-22T20:46:53.742Z,7.07
2019-05-22T20:49:25.214Z,7.10
2019-05-22T20:51:56.970Z,9.13
2019-05-22T20:54:28.473Z,8.67
2019-05-22T20:57:00.855Z,8.67
2019-05-22T20:59:31.892Z,14.77
2019-05-22T21:02:02.556Z,8.03
2019-05-22T21:04:35.155Z,7.40
2019-05-22T21:07:09.324Z,9.93
2019-05-22T21:09:39.930Z,8.87
2019-05-22T21:12:12.553Z,8.90
2019-05-22T21:14:43.782Z,7.90
2019-05-22T21:17:16.172Z,8.80
2019-05-22T21:19:47.572Z,8.77
2019-05-22T21:22:22.949Z,9.03
2019-05-22T21:24:54.192Z,10.57
2019-05-22T21:27:25.239Z,16.10
2019-05-22T21:29:56.215Z,12.83
2019-05-22T21:32:27.802Z,9.33
2019-05-22T21:35:00.370Z,9.03
2019-05-22T21:37:32.312Z,10.03
2019-05-22T21:40:03.590Z,10.23
2019-05-22T21:42:36.521Z,9.07
2019-05-22T21:45:08.026Z,10.13
2019-05-22T21:47:38.520Z,9.93
2019-05-22T21:50:10.404Z,11.20
2019-05-22T21:52:41.288Z,10.37
2019-05-22T21:55:13.072Z,10.13
2019-05-22T21:57:45.642Z,9.97
2019-05-22T22:00:22.259Z,11.30
2019-05-22T22:02:53.164Z,9.97
2019-05-22T22:05:23.824Z,9.63
2019-05-22T22:07:54.920Z,9.87
2019-05-22T22:10:25.472Z,10.03
2019-05-22T22:12:57.024Z,9.63
2019-05-22T22:15:28.087Z,9.90
2019-05-22T22:17:58.880Z,9.20
2019-05-22T22:20:29.739Z,9.90
2019-05-22T22:23:00.568Z,9.80
2019-05-22T22:25:31.723Z,10.03
2019-05-22T22:28:02.526Z,9.37
2019-05-22T22:30:43.627Z,9.97
2019-05-22T22:33:16.790Z,10.10
2019-05-22T22:35:47.632Z,9.70
2019-05-22T22:38:21.545Z,10.40
2019-05-22T22:40:53.945Z,10.07
2019-05-22T22:43:27.836Z,10.30
2019-05-22T22:46:06.685Z,15.60
2019-05-22T22:48:39.047Z,9.97
2019-05-22T22:51:12.114Z,9.73
2019-05-22T22:53:43.795Z,10.53
2019-05-22T22:56:17.115Z,10.33
2019-05-22T22:58:48.579Z,10.10
2019-05-22T23:01:26.103Z,9.50
2019-05-22T23:04:01.049Z,10.80
2019-05-22T23:06:35.900Z,10.47
2019-05-22T23:09:07.623Z,9.63
2019-05-22T23:11:41.797Z,10.53
2019-05-22T23:14:13.060Z,9.33
2019-05-22T23:16:43.448Z,10.17
2019-05-22T23:19:32.793Z,11.63
2019-05-22T23:22:03.511Z,10.00
2019-05-22T23:24:37.737Z,10.23
2019-05-22T23:27:09.409Z,10.03
2019-05-22T23:29:40.588Z,10.97
2019-05-22T23:32:14.251Z,13.07
2019-05-22T23:34:47.333Z,10.80
2019-05-22T23:37:21.221Z,10.93
2019-05-22T23:39:54.088Z,10.57
2019-05-22T23:42:33.636Z,9.83
2019-05-22T23:45:07.109Z,9.73
2019-05-22T23:48:14.719Z,9.40
2019-05-22T23:50:47.487Z,10.17
2019-05-22T23:53:18.688Z,10.77
2019-05-22T23:55:50.051Z,9.70
2019-05-22T23:58:23.139Z,10.77
